Time;durP1;ratioP1;P1;durP2;ratioP2;P2;SDS_P1;SDS_P2;PMS_P1;PMS_P2;Temp;Humidity;BMP_temperature;BMP_pressure;BME280_temperature;BME280_humidity;BME280_pressure;Samples;Min_cycle;Max_cycle;Signal;HPM_P1;HPM_P2
2022/06/29 00:00:45;;;;;;;2.78;1.10;;;;;;;;;;5072685;28;20122;-72
2022/06/29 00:03:11;;;;;;;1.08;1.05;;;;;;;;;;5072261;28;20098;-72
2022/06/29 00:05:38;;;;;;;1.75;1.00;;;;;;;;;;5072513;28;20048;-71
2022/06/29 00:08:04;;;;;;;1.83;1.08;;;;;;;;;;5072316;28;20102;-72
2022/06/29 00:10:34;;;;;;;3.63;1.40;;;;;;;;;;5078844;28;20048;-72
2022/06/29 00:13:01;;;;;;;3.45;1.30;;;;;;;;;;5092515;28;20052;-71
2022/06/29 00:15:27;;;;;;;2.05;1.00;;;;;;;;;;5093034;28;20087;-71
2022/06/29 00:17:54;;;;;;;1.70;1.15;;;;;;;;;;5092355;28;20051;-71
2022/06/29 00:20:21;;;;;;;1.90;1.00;;;;;;;;;;5075145;28;20488;-71
2022/06/29 00:22:48;;;;;;;1.23;1.02;;;;;;;;;;5071122;28;20086;-72
2022/06/29 00:25:15;;;;;;;0.85;0.73;;;;;;;;;;5072140;28;20439;-72
2022/06/29 00:27:41;;;;;;;1.25;1.25;;;;;;;;;;5072240;28;20118;-71
2022/06/29 00:30:08;;;;;;;3.05;0.80;;;;;;;;;;5071978;28;20052;-69
2022/06/29 00:32:34;;;;;;;1.17;0.90;;;;;;;;;;5071775;28;20048;-69
2022/06/29 00:35:01;;;;;;;2.75;1.05;;;;;;;;;;5072191;28;20083;-70
2022/06/29 00:37:27;;;;;;;0.75;0.60;;;;;;;;;;5071987;28;20060;-69
2022/06/29 00:39:54;;;;;;;0.68;0.60;;;;;;;;;;5071958;28;20447;-69
2022/06/29 00:42:21;;;;;;;1.30;0.70;;;;;;;;;;5071673;28;20102;-68
2022/06/29 00:44:47;;;;;;;2.38;0.70;;;;;;;;;;5071902;28;20040;-68
2022/06/29 00:47:14;;;;;;;1.00;0.63;;;;;;;;;;5071649;28;20097;-69
2022/06/29 00:49:41;;;;;;;0.80;0.80;;;;;;;;;;5071974;28;20045;-68
2022/06/29 00:52:08;;;;;;;3.00;0.70;;;;;;;;;;5071966;28;20282;-69
2022/06/29 00:54:55;;;;;;;1.08;0.70;;;;;;;;;;5071761;28;20052;-69
2022/06/29 00:57:26;;;;;;;3.45;0.90;;;;;;;;;;5071417;28;20122;-70
2022/06/29 00:59:57;;;;;;;0.98;0.63;;;;;;;;;;5070722;28;20052;-73
2022/06/29 01:02:28;;;;;;;0.47;0.47;;;;;;;;;;5071711;28;20049;-70
2022/06/29 01:04:55;;;;;;;2.05;0.85;;;;;;;;;;5071730;28;20047;-70
2022/06/29 01:07:28;;;;;;;0.95;0.43;;;;;;;;;;5070345;28;20054;-70
2022/06/29 01:09:55;;;;;;;0.88;0.68;;;;;;;;;;5071752;28;20048;-71
2022/06/29 01:12:22;;;;;;;0.82;0.60;;;;;;;;;;5071645;28;20079;-71
2022/06/29 01:14:49;;;;;;;0.67;0.50;;;;;;;;;;5071874;28;20049;-71
2022/06/29 01:17:16;;;;;;;;;;;;;;;;;;5071750;28;20052;-72
2022/06/29 01:19:43;;;;;;;1.25;0.60;;;;;;;;;;5079623;28;20335;-73
2022/06/29 01:22:22;;;;;;;1.50;0.80;;;;;;;;;;5071311;28;20485;-73
2022/06/29 01:24:49;;;;;;;1.88;0.90;;;;;;;;;;5071170;28;20045;-73
2022/06/29 01:27:16;;;;;;;1.38;0.70;;;;;;;;;;5071517;28;20053;-73
2022/06/29 01:29:44;;;;;;;1.38;0.60;;;;;;;;;;5071308;28;20094;-79
2022/06/29 01:32:10;;;;;;;0.95;0.60;;;;;;;;;;5071232;28;20645;-74
2022/06/29 01:34:37;;;;;;;1.25;0.65;;;;;;;;;;5071224;28;20048;-74
2022/06/29 01:37:05;;;;;;;0.90;0.73;;;;;;;;;;5071270;28;20076;-74
2022/06/29 01:39:31;;;;;;;;;;;;;;;;;;5071836;28;20052;-73
2022/06/29 01:41:57;;;;;;;3.40;1.40;;;;;;;;;;5071270;28;19921;-77
2022/06/29 01:44:24;;;;;;;4.68;1.33;;;;;;;;;;5070987;28;20048;-75
2022/06/29 01:46:50;;;;;;;1.52;1.02;;;;;;;;;;5071554;28;20048;-75
2022/06/29 01:49:17;;;;;;;7.10;1.73;;;;;;;;;;5071029;28;20496;-75
2022/06/29 01:51:43;;;;;;;6.43;2.20;;;;;;;;;;5070866;28;20453;-75
2022/06/29 01:54:10;;;;;;;5.03;2.20;;;;;;;;;;5071379;28;20053;-75
2022/06/29 01:56:36;;;;;;;8.23;2.83;;;;;;;;;;5071208;28;20342;-75
2022/06/29 01:59:04;;;;;;;7.30;2.63;;;;;;;;;;5071036;28;20082;-76
2022/06/29 02:01:30;;;;;;;;;;;;;;;;;;5071813;28;20106;-75
2022/06/29 02:03:57;;;;;;;7.35;2.53;;;;;;;;;;5071225;28;20024;-76
2022/06/29 02:06:24;;;;;;;3.60;2.20;;;;;;;;;;5070802;28;20136;-76
2022/06/29 02:08:52;;;;;;;6.38;2.33;;;;;;;;;;5077482;28;20124;-76
2022/06/29 02:11:19;;;;;;;7.32;2.45;;;;;;;;;;5093485;28;20071;-76
2022/06/29 02:13:46;;;;;;;6.50;2.13;;;;;;;;;;5095149;28;20044;-76
2022/06/29 02:16:12;;;;;;;7.05;2.47;;;;;;;;;;5094953;28;20076;-76
2022/06/29 02:18:39;;;;;;;7.32;2.00;;;;;;;;;;5091613;28;20571;-76
2022/06/29 02:21:05;;;;;;;7.88;3.30;;;;;;;;;;5074568;28;20076;-77
2022/06/29 02:23:32;;;;;;;6.50;2.67;;;;;;;;;;5074237;28;20488;-77
2022/06/29 02:25:58;;;;;;;7.55;2.60;;;;;;;;;;5072935;28;20040;-77
2022/06/29 02:28:25;;;;;;;6.22;2.28;;;;;;;;;;5074506;28;20458;-77
2022/06/29 02:36:22;;;;;;;13.77;3.20;;;;;;;;;;5074181;28;20149;-77
2022/06/29 02:38:48;;;;;;;4.88;2.53;;;;;;;;;;5074331;28;20389;-77
2022/06/29 02:41:15;;;;;;;8.05;2.88;;;;;;;;;;5073961;28;20049;-77
2022/06/29 02:43:41;;;;;;;6.50;2.67;;;;;;;;;;5073964;28;20053;-77
2022/06/29 02:46:07;;;;;;;5.78;2.40;;;;;;;;;;5072777;28;20082;-77
2022/06/29 02:48:34;;;;;;;8.52;3.10;;;;;;;;;;5074104;28;20048;-77
2022/06/29 02:51:00;;;;;;;5.07;3.03;;;;;;;;;;5072833;28;20056;-77
2022/06/29 02:53:27;;;;;;;8.60;3.40;;;;;;;;;;5073909;28;20102;-77
2022/06/29 02:55:54;;;;;;;8.90;3.00;;;;;;;;;;5074174;28;20105;-77
2022/06/29 02:58:20;;;;;;;9.73;3.75;;;;;;;;;;5073489;28;20057;-77
2022/06/29 03:00:47;;;;;;;10.40;2.75;;;;;;;;;;5073620;28;20497;-77
2022/06/29 03:03:13;;;;;;;13.00;3.40;;;;;;;;;;5073833;28;20044;-77
2022/06/29 03:05:40;;;;;;;6.82;2.60;;;;;;;;;;5073829;28;20088;-77
2022/06/29 03:08:06;;;;;;;8.25;3.03;;;;;;;;;;5073873;28;20106;-77
2022/06/29 03:10:33;;;;;;;11.18;3.53;;;;;;;;;;5073803;28;20045;-77
2022/06/29 03:12:59;;;;;;;8.45;3.45;;;;;;;;;;5073784;28;20397;-77
2022/06/29 03:15:26;;;;;;;8.85;3.17;;;;;;;;;;5073211;28;20488;-77
2022/06/29 03:17:53;;;;;;;10.68;3.45;;;;;;;;;;5077995;28;20093;-79
2022/06/29 03:20:20;;;;;;;6.80;3.03;;;;;;;;;;5076825;28;20105;-77
2022/06/29 03:22:46;;;;;;;12.00;3.88;;;;;;;;;;5072505;28;20101;-77
2022/06/29 03:25:14;;;;;;;10.25;3.55;;;;;;;;;;5073034;28;20045;-76
2022/06/29 03:27:40;;;;;;;10.65;4.00;;;;;;;;;;5071906;28;20060;-76
2022/06/29 03:30:08;;;;;;;12.13;3.78;;;;;;;;;;5073398;28;20045;-77
2022/06/29 03:32:34;;;;;;;11.15;3.30;;;;;;;;;;5072919;28;20481;-75
2022/06/29 03:35:01;;;;;;;10.30;3.72;;;;;;;;;;5072940;28;20487;-75
2022/06/29 03:37:27;;;;;;;16.33;4.22;;;;;;;;;;5087584;28;20449;-75
2022/06/29 03:39:54;;;;;;;11.27;4.40;;;;;;;;;;5093470;28;20376;-75
2022/06/29 03:42:20;;;;;;;7.82;3.92;;;;;;;;;;5092608;28;20487;-75
2022/06/29 03:44:47;;;;;;;12.30;4.10;;;;;;;;;;5093150;28;20044;-75
2022/06/29 03:47:13;;;;;;;13.30;4.60;;;;;;;;;;5091972;28;20446;-76
2022/06/29 03:49:40;;;;;;;8.98;4.15;;;;;;;;;;5092930;28;20044;-75
2022/06/29 03:52:06;;;;;;;9.30;3.97;;;;;;;;;;5093121;28;20072;-76
2022/06/29 03:54:33;;;;;;;10.52;4.28;;;;;;;;;;5092984;28;20105;-75
2022/06/29 03:56:59;;;;;;;12.90;4.65;;;;;;;;;;5091640;28;20094;-77
2022/06/29 03:59:26;;;;;;;16.75;4.10;;;;;;;;;;5091467;28;20126;-76
2022/06/29 04:01:52;;;;;;;13.18;4.40;;;;;;;;;;5092576;28;20083;-75
2022/06/29 04:04:19;;;;;;;14.07;4.45;;;;;;;;;;5092579;28;20834;-75
2022/06/29 04:06:45;;;;;;;13.00;3.97;;;;;;;;;;5092445;28;20079;-75
2022/06/29 04:09:12;;;;;;;15.35;4.97;;;;;;;;;;5093044;28;20093;-74
2022/06/29 04:11:54;;;;;;;15.50;4.88;;;;;;;;;;5092692;28;20047;-75
2022/06/29 04:14:24;;;;;;;13.95;4.75;;;;;;;;;;5092712;28;20403;-74
2022/06/29 04:16:51;;;;;;;13.85;4.95;;;;;;;;;;5092687;28;20055;-74
2022/06/29 04:19:18;;;;;;;11.68;4.15;;;;;;;;;;5088479;28;20056;-75
2022/06/29 04:21:46;;;;;;;11.65;4.60;;;;;;;;;;5072380;28;20457;-75
2022/06/29 04:24:13;;;;;;;10.07;4.45;;;;;;;;;;5072214;28;20052;-74
2022/06/29 04:26:39;;;;;;;12.25;4.93;;;;;;;;;;5071925;28;20500;-73
2022/06/29 04:29:06;;;;;;;11.07;4.30;;;;;;;;;;5071890;28;20499;-74
2022/06/29 04:31:33;;;;;;;15.82;5.40;;;;;;;;;;5072217;28;20090;-73
2022/06/29 04:34:00;;;;;;;16.40;5.27;;;;;;;;;;5071400;28;20044;-74
2022/06/29 04:36:27;;;;;;;11.40;4.75;;;;;;;;;;5071726;28;20106;-74
2022/06/29 04:38:54;;;;;;;15.05;5.72;;;;;;;;;;5071826;28;20466;-74
2022/06/29 04:41:21;;;;;;;11.23;4.80;;;;;;;;;;5071528;28;20484;-74
2022/06/29 04:43:48;;;;;;;12.68;5.22;;;;;;;;;;5071852;28;20049;-72
2022/06/29 04:46:21;;;;;;;19.15;5.63;;;;;;;;;;5071589;28;20040;-74
2022/06/29 04:48:56;;;;;;;16.30;5.25;;;;;;;;;;5071669;28;20496;-73
2022/06/29 04:51:23;;;;;;;10.32;4.70;;;;;;;;;;5071506;28;20562;-73
2022/06/29 04:53:54;;;;;;;11.18;4.72;;;;;;;;;;5071937;28;20040;-73
2022/06/29 04:56:21;;;;;;;14.02;5.25;;;;;;;;;;5071754;28;20125;-74
2022/06/29 04:58:47;;;;;;;10.17;4.20;;;;;;;;;;5077845;28;20075;-73
2022/06/29 05:01:14;;;;;;;14.18;5.13;;;;;;;;;;5092036;28;20100;-73
2022/06/29 05:03:41;;;;;;;14.55;4.43;;;;;;;;;;5091820;28;20478;-73
2022/06/29 05:06:08;;;;;;;16.70;4.43;;;;;;;;;;5091833;28;20087;-74
2022/06/29 05:08:34;;;;;;;14.50;4.70;;;;;;;;;;5091847;28;20055;-74
2022/06/29 05:11:00;;;;;;;15.82;4.43;;;;;;;;;;5092002;28;20081;-73
2022/06/29 05:13:27;;;;;;;9.65;3.88;;;;;;;;;;5091824;28;20101;-73
2022/06/29 05:15:53;;;;;;;9.70;4.50;;;;;;;;;;5091548;28;20519;-73
2022/06/29 05:18:20;;;;;;;12.95;4.75;;;;;;;;;;5091813;28;20052;-73
2022/06/29 05:20:55;;;;;;;12.65;4.18;;;;;;;;;;5077668;28;20503;-73
2022/06/29 05:23:21;;;;;;;6.28;3.60;;;;;;;;;;5091879;28;20087;-74
2022/06/29 05:25:48;;;;;;;12.90;4.25;;;;;;;;;;5091682;28;20086;-74
2022/06/29 05:28:15;;;;;;;10.93;4.00;;;;;;;;;;5091780;28;20084;-74
2022/06/29 05:30:42;;;;;;;10.25;3.65;;;;;;;;;;5091805;28;20051;-74
2022/06/29 05:33:08;;;;;;;12.13;3.50;;;;;;;;;;5091768;28;20412;-74
2022/06/29 05:35:35;;;;;;;8.70;3.45;;;;;;;;;;5091355;28;20515;-73
2022/06/29 05:38:02;;;;;;;11.70;3.67;;;;;;;;;;5090114;28;20492;-73
2022/06/29 05:40:29;;;;;;;11.27;3.47;;;;;;;;;;5091232;28;20085;-73
2022/06/29 05:42:57;;;;;;;11.52;3.97;;;;;;;;;;5090953;28;20052;-74
2022/06/29 05:45:25;;;;;;;9.68;4.18;;;;;;;;;;5092047;28;20466;-73
2022/06/29 05:47:52;;;;;;;8.95;3.60;;;;;;;;;;5095274;28;20084;-74
2022/06/29 05:50:22;;;;;;;11.65;4.05;;;;;;;;;;5095186;28;20083;-72
2022/06/29 05:52:49;;;;;;;9.23;3.60;;;;;;;;;;5095122;28;20113;-73
2022/06/29 05:55:16;;;;;;;11.23;4.60;;;;;;;;;;5094643;28;20495;-74
2022/06/29 05:57:42;;;;;;;13.07;4.13;;;;;;;;;;5094795;28;20277;-74
2022/06/29 06:00:10;;;;;;;15.45;4.05;;;;;;;;;;5093492;28;20530;-74
2022/06/29 06:02:37;;;;;;;8.40;3.70;;;;;;;;;;5095649;28;20052;-73
2022/06/29 06:05:03;;;;;;;12.85;4.07;;;;;;;;;;5094817;28;20105;-74
2022/06/29 06:07:30;;;;;;;12.63;4.10;;;;;;;;;;5094283;28;20510;-74
2022/06/29 06:09:57;;;;;;;8.30;3.95;;;;;;;;;;5094814;28;20571;-74
2022/06/29 06:12:23;;;;;;;10.48;3.97;;;;;;;;;;5094688;28;20494;-73
2022/06/29 06:14:50;;;;;;;10.82;4.40;;;;;;;;;;5094708;28;20543;-75
2022/06/29 06:17:16;;;;;;;10.50;4.00;;;;;;;;;;5095244;28;20052;-74
2022/06/29 06:19:43;;;;;;;8.65;3.85;;;;;;;;;;5084963;28;20397;-75
2022/06/29 06:22:09;;;;;;;13.75;4.65;;;;;;;;;;5074565;28;20052;-75
2022/06/29 06:24:36;;;;;;;11.32;4.18;;;;;;;;;;5074190;28;20416;-75
2022/06/29 06:27:03;;;;;;;13.18;4.25;;;;;;;;;;5092788;28;20306;-75
2022/06/29 06:29:30;;;;;;;;;;;;;;;;;;5095203;28;20055;-79
2022/06/29 06:31:56;;;;;;;7.63;3.35;;;;;;;;;;5094670;28;19924;-73
2022/06/29 06:34:23;;;;;;;9.63;3.42;;;;;;;;;;5094957;28;20044;-80
2022/06/29 06:36:50;;;;;;;10.45;3.22;;;;;;;;;;5094696;28;20048;-79
2022/06/29 06:39:16;;;;;;;6.45;2.83;;;;;;;;;;5094057;28;20534;-77
2022/06/29 06:41:42;;;;;;;8.18;3.42;;;;;;;;;;5094132;28;20064;-74
2022/06/29 06:44:09;;;;;;;10.55;3.40;;;;;;;;;;5092348;28;20488;-75
2022/06/29 06:46:36;;;;;;;10.88;3.03;;;;;;;;;;5093161;28;20044;-73
2022/06/29 06:49:03;;;;;;;6.82;3.65;;;;;;;;;;5093205;28;20134;-73
2022/06/29 06:51:29;;;;;;;6.05;3.28;;;;;;;;;;5092404;28;20048;-74
2022/06/29 06:53:56;;;;;;;9.82;2.92;;;;;;;;;;5092550;28;20479;-75
2022/06/29 06:56:22;;;;;;;10.35;3.65;;;;;;;;;;5093644;28;20091;-74
2022/06/29 06:58:49;;;;;;;7.03;2.60;;;;;;;;;;5092489;28;20557;-74
2022/06/29 07:01:20;;;;;;;8.15;2.75;;;;;;;;;;5093837;28;20135;-75
2022/06/29 07:03:47;;;;;;;7.05;2.95;;;;;;;;;;5093497;28;20127;-73
2022/06/29 07:06:14;;;;;;;4.80;2.40;;;;;;;;;;5093930;28;20048;-73
2022/06/29 07:08:40;;;;;;;8.23;2.95;;;;;;;;;;5093661;28;20281;-76
2022/06/29 07:11:07;;;;;;;7.50;2.95;;;;;;;;;;5093746;28;20475;-75
2022/06/29 07:13:34;;;;;;;5.95;2.80;;;;;;;;;;5093605;28;20495;-75
2022/06/29 07:16:03;;;;;;;9.17;2.80;;;;;;;;;;5093769;28;20483;-75
2022/06/29 07:18:30;;;;;;;6.30;2.35;;;;;;;;;;5093885;28;20334;-75
2022/06/29 07:20:56;;;;;;;8.57;2.58;;;;;;;;;;5079646;28;20097;-75
2022/06/29 07:23:23;;;;;;;7.20;2.22;;;;;;;;;;5093416;28;20060;-75
2022/06/29 07:25:49;;;;;;;7.78;2.35;;;;;;;;;;5092039;28;20484;-75
2022/06/29 07:28:16;;;;;;;6.20;2.28;;;;;;;;;;5093497;28;20090;-73
2022/06/29 07:30:42;;;;;;;6.00;1.80;;;;;;;;;;5093277;28;20075;-72
2022/06/29 07:33:09;;;;;;;8.25;2.03;;;;;;;;;;5093634;28;20069;-73
2022/06/29 07:35:36;;;;;;;8.75;2.47;;;;;;;;;;5093449;28;20036;-74
2022/06/29 07:38:03;;;;;;;6.30;1.98;;;;;;;;;;5093499;28;20056;-74
2022/06/29 07:40:29;;;;;;;9.63;2.40;;;;;;;;;;5093084;28;20557;-76
2022/06/29 07:42:56;;;;;;;6.53;1.85;;;;;;;;;;5091686;28;20055;-74
2022/06/29 07:45:23;;;;;;;7.35;2.33;;;;;;;;;;5093427;28;20501;-76
2022/06/29 07:47:52;;;;;;;6.13;1.40;;;;;;;;;;5093144;28;20407;-74
2022/06/29 07:50:19;;;;;;;5.40;1.88;;;;;;;;;;5093086;28;20058;-73
2022/06/29 07:52:45;;;;;;;6.23;1.30;;;;;;;;;;5093206;28;20044;-73
2022/06/29 07:55:12;;;;;;;6.30;1.77;;;;;;;;;;5092931;28;20341;-73
2022/06/29 07:57:38;;;;;;;5.17;1.50;;;;;;;;;;5093153;28;20044;-74
2022/06/29 08:00:05;;;;;;;7.13;1.98;;;;;;;;;;5092684;28;20063;-73
2022/06/29 08:02:32;;;;;;;4.97;1.77;;;;;;;;;;5092668;28;20097;-74
2022/06/29 08:05:00;;;;;;;5.22;1.50;;;;;;;;;;5093012;28;20052;-75
2022/06/29 08:07:31;;;;;;;6.35;1.38;;;;;;;;;;5092851;28;20051;-75
2022/06/29 08:09:59;;;;;;;3.55;0.93;;;;;;;;;;5092534;28;20051;-76
2022/06/29 08:12:25;;;;;;;6.07;1.33;;;;;;;;;;5092896;28;20048;-72
2022/06/29 08:14:52;;;;;;;4.63;1.63;;;;;;;;;;5092444;28;20499;-74
2022/06/29 08:17:18;;;;;;;3.45;1.33;;;;;;;;;;5092612;28;20415;-74
2022/06/29 08:19:45;;;;;;;4.45;1.20;;;;;;;;;;5081939;28;20048;-75
2022/06/29 08:22:12;;;;;;;4.85;1.50;;;;;;;;;;5072026;28;20550;-75
2022/06/29 08:24:38;;;;;;;4.25;1.52;;;;;;;;;;5072337;28;20052;-73
2022/06/29 08:27:05;;;;;;;5.00;1.50;;;;;;;;;;5072174;28;20472;-74
2022/06/29 08:29:51;;;;;;;4.40;1.25;;;;;;;;;;5071882;28;20615;-74
2022/06/29 08:32:18;;;;;;;5.90;1.52;;;;;;;;;;5072179;28;20118;-74
2022/06/29 08:34:45;;;;;;;4.22;1.00;;;;;;;;;;5071880;28;20057;-75
2022/06/29 08:37:11;;;;;;;3.85;0.88;;;;;;;;;;5072484;28;20049;-74
2022/06/29 08:39:38;;;;;;;4.43;0.80;;;;;;;;;;5072102;28;20114;-75
2022/06/29 08:42:05;;;;;;;2.80;0.80;;;;;;;;;;5071723;28;20064;-75
2022/06/29 08:44:32;;;;;;;3.58;0.70;;;;;;;;;;5071600;28;20077;-74
2022/06/29 08:47:05;;;;;;;6.43;1.13;;;;;;;;;;5071648;28;20554;-74
2022/06/29 08:49:32;;;;;;;2.30;0.70;;;;;;;;;;5072259;28;20044;-73
2022/06/29 08:51:58;;;;;;;;;;;;;;;;;;5072237;28;20044;-73
2022/06/29 08:54:25;;;;;;;2.58;0.60;;;;;;;;;;5071950;28;19926;-74
2022/06/29 08:56:53;;;;;;;2.75;0.55;;;;;;;;;;5071469;28;20432;-73
2022/06/29 08:59:23;;;;;;;3.13;0.63;;;;;;;;;;5071834;28;20102;-74
2022/06/29 09:02:10;;;;;;;4.18;0.73;;;;;;;;;;5070472;28;20048;-74
2022/06/29 09:04:37;;;;;;;3.53;0.95;;;;;;;;;;5071729;28;20048;-72
2022/06/29 09:07:04;;;;;;;2.15;0.75;;;;;;;;;;5071391;28;20480;-74
2022/06/29 09:09:30;;;;;;;3.67;0.80;;;;;;;;;;5071514;28;20557;-74
2022/06/29 09:11:57;;;;;;;2.92;0.63;;;;;;;;;;5071678;28;20094;-75
2022/06/29 09:14:25;;;;;;;3.22;1.08;;;;;;;;;;5071615;28;20052;-75
2022/06/29 09:16:51;;;;;;;4.47;0.80;;;;;;;;;;5071523;28;20106;-73
2022/06/29 09:19:21;;;;;;;4.60;0.77;;;;;;;;;;5081288;28;20049;-74
2022/06/29 09:21:48;;;;;;;2.35;0.60;;;;;;;;;;5075143;28;20048;-74
2022/06/29 09:24:15;;;;;;;3.45;0.93;;;;;;;;;;5075427;28;20488;-74
2022/06/29 09:26:42;;;;;;;;;;;;;;;;;;5076007;28;20044;-73
2022/06/29 09:29:27;;;;;;;2.45;0.60;;;;;;;;;;5075640;28;19999;-73
2022/06/29 09:32:06;;;;;;;3.92;0.80;;;;;;;;;;5075398;28;20070;-74
2022/06/29 09:34:33;;;;;;;4.97;0.80;;;;;;;;;;5082310;28;20048;-74
2022/06/29 09:37:00;;;;;;;;;;;;;;;;;;5095913;28;20102;-75
2022/06/29 09:39:26;;;;;;;;;;;;;;;;;;5096164;28;19920;-73
2022/06/29 09:41:57;;;;;;;3.22;0.63;;;;;;;;;;5095543;28;19920;-74
2022/06/29 09:44:23;;;;;;;3.25;0.80;;;;;;;;;;5095619;28;20083;-72
2022/06/29 09:46:54;;;;;;;2.25;0.45;;;;;;;;;;5095454;28;20093;-74
2022/06/29 09:49:24;;;;;;;4.10;0.70;;;;;;;;;;5095364;28;20488;-74
2022/06/29 09:51:55;;;;;;;3.88;0.95;;;;;;;;;;5095535;28;20109;-73
2022/06/29 09:54:26;;;;;;;2.40;0.50;;;;;;;;;;5095681;28;20089;-74
2022/06/29 09:56:55;;;;;;;5.40;1.10;;;;;;;;;;5093895;28;20044;-73
2022/06/29 10:05:04;;;;;;;3.77;0.90;;;;;;;;;;5095321;28;20065;-73
2022/06/29 10:07:31;;;;;;;4.72;1.15;;;;;;;;;;5095066;28;20044;-74
2022/06/29 10:09:59;;;;;;;4.68;1.00;;;;;;;;;;5095079;28;20048;-74
2022/06/29 10:15:11;;;;;;;2.53;0.90;;;;;;;;;;5094682;28;19966;-73
2022/06/29 10:17:49;;;;;;;3.78;0.82;;;;;;;;;;5094718;28;20097;-74
2022/06/29 10:20:15;;;;;;;2.92;0.68;;;;;;;;;;5079514;28;20076;-73
2022/06/29 10:22:42;;;;;;;5.90;1.30;;;;;;;;;;5074709;28;20052;-73
2022/06/29 10:25:10;;;;;;;4.65;0.93;;;;;;;;;;5074644;28;20339;-74
2022/06/29 10:27:37;;;;;;;3.90;1.35;;;;;;;;;;5074241;28;20125;-74
2022/06/29 10:30:19;;;;;;;5.37;1.00;;;;;;;;;;5073037;28;20080;-71
2022/06/29 10:32:47;;;;;;;4.00;0.93;;;;;;;;;;5094354;28;20043;-72
2022/06/29 10:35:13;;;;;;;;;;;;;;;;;;5095006;28;20047;-73
2022/06/29 10:37:50;;;;;;;4.85;0.98;;;;;;;;;;5094259;28;20330;-73
2022/06/29 10:40:17;;;;;;;2.15;0.50;;;;;;;;;;5094611;28;20060;-73
2022/06/29 10:45:33;;;;;;;3.47;0.80;;;;;;;;;;5094461;28;20048;-73
2022/06/29 10:48:06;;;;;;;3.33;0.80;;;;;;;;;;5094332;28;20047;-73
2022/06/29 10:50:33;;;;;;;3.72;0.80;;;;;;;;;;5094151;28;20098;-74
2022/06/29 10:53:04;;;;;;;4.55;0.88;;;;;;;;;;5094278;28;20136;-73
2022/06/29 10:55:31;;;;;;;4.70;1.10;;;;;;;;;;5094220;28;20079;-72
2022/06/29 10:57:58;;;;;;;3.30;0.70;;;;;;;;;;5093955;28;20073;-74
2022/06/29 11:00:25;;;;;;;2.10;0.60;;;;;;;;;;5094167;28;20056;-73
2022/06/29 11:02:52;;;;;;;1.33;0.50;;;;;;;;;;5092960;28;20082;-73
2022/06/29 11:05:19;;;;;;;1.90;0.68;;;;;;;;;;5093873;28;20052;-74
2022/06/29 11:13:24;;;;;;;2.03;0.57;;;;;;;;;;5094240;28;20067;-73
2022/06/29 11:15:51;;;;;;;2.45;0.43;;;;;;;;;;5093692;28;20567;-74
2022/06/29 11:18:19;;;;;;;0.68;0.22;;;;;;;;;;5094035;28;20051;-73
2022/06/29 11:20:50;;;;;;;1.20;0.35;;;;;;;;;;5074390;28;20450;-74
2022/06/29 11:23:18;;;;;;;2.28;0.43;;;;;;;;;;5073597;28;20122;-74
2022/06/29 11:25:47;;;;;;;1.83;0.50;;;;;;;;;;5073130;28;20497;-74
2022/06/29 11:28:16;;;;;;;1.52;0.40;;;;;;;;;;5073377;28;20052;-74
2022/06/29 11:31:01;;;;;;;1.58;0.38;;;;;;;;;;5073049;28;20459;-75
2022/06/29 11:33:28;;;;;;;1.30;0.30;;;;;;;;;;5073189;28;20110;-75
2022/06/29 11:35:55;;;;;;;1.65;0.30;;;;;;;;;;5073222;28;20044;-75
2022/06/29 11:38:28;;;;;;;1.10;0.35;;;;;;;;;;5073210;28;20458;-74
2022/06/29 11:40:54;;;;;;;1.25;0.40;;;;;;;;;;5072908;28;20488;-75
2022/06/29 11:43:43;;;;;;;2.45;0.40;;;;;;;;;;5072246;28;20055;-76
2022/06/29 11:46:17;;;;;;;2.75;0.50;;;;;;;;;;5073173;28;20531;-75
2022/06/29 11:49:33;;;;;;;1.58;0.60;;;;;;;;;;5072724;28;20051;-76
2022/06/29 11:51:34;;;;;;;1.33;0.43;;;;;;;;;;5072566;28;20526;-75
2022/06/29 11:54:08;;;;;;;1.65;0.55;;;;;;;;;;5072878;28;20048;-75
2022/06/29 11:56:34;;;;;;;1.42;0.40;;;;;;;;;;5072463;28;20515;-76
2022/06/29 11:59:04;;;;;;;2.85;0.82;;;;;;;;;;5072894;28;20127;-74
2022/06/29 12:01:31;;;;;;;2.65;0.52;;;;;;;;;;5072670;28;20549;-75
2022/06/29 12:03:59;;;;;;;0.40;0.20;;;;;;;;;;5072441;28;20053;-76
2022/06/29 12:06:27;;;;;;;2.05;0.50;;;;;;;;;;5072264;28;20048;-74
2022/06/29 12:08:54;;;;;;;1.50;0.32;;;;;;;;;;5072534;28;20078;-76
2022/06/29 12:11:21;;;;;;;1.58;0.50;;;;;;;;;;5072292;28;20484;-75
2022/06/29 12:13:49;;;;;;;;;;;;;;;;;;5072914;28;20040;-75
2022/06/29 12:16:16;;;;;;;1.85;0.45;;;;;;;;;;5072313;28;19920;-75
2022/06/29 12:18:42;;;;;;;3.10;0.40;;;;;;;;;;5081765;28;20055;-76
2022/06/29 12:21:09;;;;;;;2.15;0.70;;;;;;;;;;5072432;28;20440;-75
2022/06/29 12:23:36;;;;;;;;;;;;;;;;;;5072721;28;20064;-75
2022/06/29 12:26:03;;;;;;;0.75;0.20;;;;;;;;;;5072131;28;19977;-75
2022/06/29 12:28:29;;;;;;;1.52;0.50;;;;;;;;;;5072265;28;20040;-76
2022/06/29 12:30:56;;;;;;;2.10;0.40;;;;;;;;;;5071991;28;20144;-75
2022/06/29 12:33:22;;;;;;;0.52;0.30;;;;;;;;;;5070617;28;20110;-75
2022/06/29 12:35:50;;;;;;;2.15;0.47;;;;;;;;;;5072197;28;20430;-75
2022/06/29 12:38:16;;;;;;;1.42;0.20;;;;;;;;;;5072115;28;20102;-75
2022/06/29 12:40:43;;;;;;;1.88;0.40;;;;;;;;;;5071911;28;20048;-75
2022/06/29 12:43:09;;;;;;;1.38;0.50;;;;;;;;;;5071849;28;20056;-75
2022/06/29 12:45:36;;;;;;;0.75;0.30;;;;;;;;;;5070835;28;20106;-75
2022/06/29 12:48:02;;;;;;;1.00;0.30;;;;;;;;;;5070695;28;20060;-75
2022/06/29 12:50:29;;;;;;;1.40;0.40;;;;;;;;;;5071744;28;20500;-75
2022/06/29 12:52:56;;;;;;;1.95;0.55;;;;;;;;;;5071980;28;20048;-75
2022/06/29 12:55:22;;;;;;;2.33;0.57;;;;;;;;;;5076911;28;20084;-75
2022/06/29 12:57:49;;;;;;;3.17;0.50;;;;;;;;;;5092091;28;20051;-75
2022/06/29 13:00:16;;;;;;;3.27;0.67;;;;;;;;;;5091730;28;20295;-75
2022/06/29 13:02:43;;;;;;;1.85;0.40;;;;;;;;;;5092084;28;20285;-75
2022/06/29 13:05:09;;;;;;;2.22;0.63;;;;;;;;;;5092200;28;20052;-75
2022/06/29 13:07:37;;;;;;;0.88;0.55;;;;;;;;;;5091996;28;20101;-75
2022/06/29 13:10:07;;;;;;;1.58;0.32;;;;;;;;;;5091916;28;20089;-75
2022/06/29 13:12:34;;;;;;;3.60;0.65;;;;;;;;;;5092377;28;20094;-75
2022/06/29 13:15:01;;;;;;;1.77;0.50;;;;;;;;;;5091697;28;20094;-75
2022/06/29 13:17:27;;;;;;;;;;;;;;;;;;5092142;28;20055;-75
2022/06/29 13:19:55;;;;;;;1.95;0.38;;;;;;;;;;5079869;28;19920;-76
2022/06/29 13:22:23;;;;;;;1.42;0.20;;;;;;;;;;5071495;28;20048;-76
2022/06/29 13:24:50;;;;;;;2.42;0.63;;;;;;;;;;5071402;28;20385;-75
2022/06/29 13:27:16;;;;;;;0.80;0.28;;;;;;;;;;5071624;28;20118;-76
2022/06/29 13:29:43;;;;;;;0.50;0.35;;;;;;;;;;5071210;28;20059;-74
2022/06/29 13:32:10;;;;;;;0.50;0.30;;;;;;;;;;5071573;28;20079;-76
2022/06/29 13:34:37;;;;;;;0.20;0.20;;;;;;;;;;5070277;28;20110;-76
2022/06/29 13:37:03;;;;;;;0.45;0.20;;;;;;;;;;5070340;28;20492;-74
2022/06/29 13:39:30;;;;;;;0.60;0.20;;;;;;;;;;5071401;28;20052;-76
2022/06/29 13:41:58;;;;;;;0.63;0.20;;;;;;;;;;5071163;28;20554;-75
2022/06/29 13:44:25;;;;;;;0.80;0.30;;;;;;;;;;5071101;28;20571;-75
2022/06/29 13:46:51;;;;;;;0.30;0.20;;;;;;;;;;5071395;28;20389;-75
2022/06/29 13:49:18;;;;;;;0.77;0.30;;;;;;;;;;5070052;28;20064;-75
2022/06/29 13:51:44;;;;;;;0.45;0.20;;;;;;;;;;5071098;28;20641;-76
2022/06/29 13:54:11;;;;;;;0.20;0.20;;;;;;;;;;5071429;28;20044;-75
2022/06/29 13:56:37;;;;;;;0.98;0.40;;;;;;;;;;5070974;28;20045;-75
2022/06/29 13:59:04;;;;;;;0.70;0.50;;;;;;;;;;5071706;28;20052;-76
2022/06/29 14:01:30;;;;;;;0.32;0.20;;;;;;;;;;5071035;28;20053;-75
2022/06/29 14:04:04;;;;;;;2.63;0.35;;;;;;;;;;5071323;28;20143;-76
2022/06/29 14:06:30;;;;;;;0.90;0.35;;;;;;;;;;5071956;28;20087;-75
2022/06/29 14:08:57;;;;;;;1.30;0.20;;;;;;;;;;5074603;28;20461;-75
2022/06/29 14:11:27;;;;;;;1.05;0.68;;;;;;;;;;5074743;28;20084;-76
2022/06/29 14:13:54;;;;;;;0.50;0.50;;;;;;;;;;5074839;28;20518;-75
2022/06/29 14:16:21;;;;;;;1.48;0.43;;;;;;;;;;5074530;28;20773;-75
2022/06/29 14:18:47;;;;;;;2.00;0.40;;;;;;;;;;5084168;28;20057;-75
2022/06/29 14:21:14;;;;;;;1.10;0.30;;;;;;;;;;5074496;28;20508;-75
2022/06/29 14:23:40;;;;;;;2.37;0.80;;;;;;;;;;5074379;28;20056;-75
2022/06/29 14:26:07;;;;;;;3.00;1.17;;;;;;;;;;5074384;28;20082;-75
2022/06/29 14:28:33;;;;;;;0.10;0.10;;;;;;;;;;5074600;28;20053;-76
2022/06/29 14:31:00;;;;;;;1.55;0.50;;;;;;;;;;5074396;28;20083;-75
2022/06/29 14:33:26;;;;;;;1.87;0.20;;;;;;;;;;5072839;28;20052;-75
2022/06/29 14:35:53;;;;;;;1.60;0.50;;;;;;;;;;5072962;28;20814;-76
2022/06/29 14:38:20;;;;;;;0.10;0.10;;;;;;;;;;5074464;28;20052;-76
2022/06/29 14:40:47;;;;;;;0.50;0.10;;;;;;;;;;5074291;28;20358;-75
2022/06/29 14:43:14;;;;;;;0.80;0.50;;;;;;;;;;5074072;28;20060;-75
2022/06/29 14:45:42;;;;;;;1.35;0.15;;;;;;;;;;5074265;28;20131;-74
2022/06/29 14:48:09;;;;;;;0.73;0.50;;;;;;;;;;5073889;28;20084;-74
2022/06/29 14:50:36;;;;;;;0.70;0.32;;;;;;;;;;5074270;28;20049;-73
2022/06/29 14:53:02;;;;;;;1.30;0.53;;;;;;;;;;5074126;28;20048;-73
2022/06/29 14:55:29;;;;;;;0.70;0.50;;;;;;;;;;5074113;28;20295;-72
2022/06/29 14:57:55;;;;;;;2.08;0.50;;;;;;;;;;5074018;28;20061;-74
2022/06/29 15:00:22;;;;;;;1.45;0.43;;;;;;;;;;5074005;28;20481;-77
2022/06/29 15:02:49;;;;;;;1.70;0.47;;;;;;;;;;5073859;28;20094;-75
2022/06/29 15:05:16;;;;;;;1.00;0.65;;;;;;;;;;5073562;28;20565;-75
2022/06/29 15:07:42;;;;;;;0.93;0.80;;;;;;;;;;5073901;28;20394;-75